CYPQ

Peterborough Airport

Peterborough, , Canada
METAR CYPQ 212000Z AUTO 17005KT 5SM BR OVC100 03/01 A3006 RMK SLP189
Observed Flight Rules
Jan-21 @ 20:00 UTC (21 minutes ago) Marginal Visual Flight Rules
Wind Visibility Clouds Conditions
170° at 5 knots 5 miles
  • Overcast at 10,000' AGL
  • Mist
Temperatures Readings
Current 3°C / 37°F
Dewpoint 1°C / 34°F
Humidity 87%
Altimeter 30.06" Hg
Pressure 1018.9 hPa
Elevation 191
METAR CYPQ 212000Z AUTO 17005KT 5SM BR OVC100 03/01 A3006 RMK SLP189
Observed Flight Rules
Jan-21 @ 20:00 UTC
(21 minutes ago)
MVFR
Wind Visibility
170° at 5 knots 5 miles
Clouds
  • Overcast at 10,000' AGL
Conditions
  • Mist
Temperature Dewpoint
3°C / 37°F 1°C / 34°F
Humidity Altimeter Pressure
87% 30.06" Hg 1018.9 hPa